createdAt,value
2023-01-22T00:01:34.433Z,1.02
2023-01-22T00:04:18.140Z,1.00
2023-01-22T00:06:54.974Z,0.99
2023-01-22T00:09:36.227Z,1.02
2023-01-22T00:12:10.288Z,1.02
2023-01-22T00:14:40.767Z,1.04
2023-01-22T00:17:25.208Z,1.08
2023-01-22T00:19:55.711Z,1.09
2023-01-22T00:22:25.081Z,1.08
2023-01-22T00:24:54.090Z,1.11
2023-01-22T00:27:31.335Z,1.11
2023-01-22T00:30:03.554Z,1.09
2023-01-22T00:32:33.475Z,1.12
2023-01-22T00:35:04.180Z,1.10
2023-01-22T00:37:33.406Z,1.10
2023-01-22T00:40:02.515Z,1.12
2023-01-22T00:42:34.868Z,1.17
2023-01-22T00:45:03.989Z,1.14
2023-01-22T00:47:33.075Z,1.17
2023-01-22T00:50:03.463Z,1.19
2023-01-22T00:52:32.550Z,1.18
2023-01-22T00:55:04.316Z,1.19
2023-01-22T00:57:33.313Z,1.20
2023-01-22T01:00:08.832Z,1.20
2023-01-22T01:02:58.412Z,1.21
2023-01-22T01:05:31.234Z,1.25
2023-01-22T01:08:00.351Z,1.28
2023-01-22T01:10:32.068Z,1.24
2023-01-22T01:13:01.065Z,1.16
2023-01-22T01:15:29.904Z,1.28
2023-01-22T01:18:01.522Z,1.28
2023-01-22T01:20:35.186Z,1.22
2023-01-22T01:23:07.581Z,1.27
2023-01-22T01:25:36.701Z,1.25
2023-01-22T01:28:05.889Z,1.24
2023-01-22T01:30:40.645Z,1.25
2023-01-22T01:33:09.919Z,1.28
2023-01-22T01:35:42.957Z,1.27
2023-01-22T01:40:54.994Z,1.26
2023-01-22T01:43:23.968Z,1.26
2023-01-22T01:46:00.748Z,1.23
2023-01-22T01:48:38.902Z,1.23
2023-01-22T01:51:17.429Z,1.10
2023-01-22T01:53:51.769Z,-0.93
2023-01-22T01:56:29.441Z,-0.38
2023-01-22T01:59:08.166Z,-0.76
2023-01-22T02:01:38.013Z,1.29
2023-01-22T02:04:10.960Z,1.31
2023-01-22T02:07:16.682Z,-0.67
2023-01-22T02:10:03.142Z,1.28
2023-01-22T02:12:42.006Z,1.32
2023-01-22T02:15:23.205Z,1.28
2023-01-22T02:17:56.542Z,1.29
2023-01-22T02:20:35.804Z,1.30
2023-01-22T02:23:04.958Z,1.32
2023-01-22T02:25:46.727Z,1.27
2023-01-22T02:28:24.580Z,1.33
2023-01-22T02:31:05.393Z,1.32
2023-01-22T02:37:01.198Z,1.28
2023-01-22T02:39:43.803Z,1.35
2023-01-22T02:42:32.777Z,-0.38
2023-01-22T02:45:04.326Z,1.31
2023-01-22T02:47:39.554Z,-0.73
2023-01-22T02:50:14.649Z,1.29
2023-01-22T02:52:47.224Z,1.34
2023-01-22T02:55:16.186Z,1.30
2023-01-22T02:57:45.055Z,1.28
2023-01-22T03:00:18.896Z,1.29
2023-01-22T03:02:51.589Z,1.32
2023-01-22T03:05:32.523Z,1.31
2023-01-22T03:11:03.121Z,1.21
2023-01-22T03:13:52.483Z,1.24
2023-01-22T03:16:41.215Z,1.27
2023-01-22T03:19:34.788Z,1.30
2023-01-22T03:22:08.585Z,1.35
2023-01-22T03:24:55.147Z,1.38
2023-01-22T03:27:56.375Z,0.52
2023-01-22T03:30:25.518Z,1.31
2023-01-22T03:32:57.741Z,1.31
2023-01-22T03:35:30.965Z,1.37
2023-01-22T03:38:21.132Z,0.92
2023-01-22T03:40:51.139Z,0.71
2023-01-22T03:43:37.549Z,1.28
2023-01-22T03:46:14.362Z,1.27
2023-01-22T03:48:54.833Z,-0.60
2023-01-22T03:51:27.657Z,1.30
2023-01-22T03:54:11.626Z,1.27
2023-01-22T03:56:53.161Z,1.26
2023-01-22T03:59:39.207Z,1.24
2023-01-22T04:02:15.267Z,1.28
2023-01-22T04:05:16.911Z,1.28
2023-01-22T04:08:12.108Z,1.26
2023-01-22T04:10:46.393Z,1.25
2023-01-22T04:13:16.938Z,1.25
2023-01-22T04:15:53.274Z,1.26
2023-01-22T04:18:48.119Z,0.98
2023-01-22T04:21:49.585Z,1.30
2023-01-22T04:24:22.895Z,1.32
2023-01-22T04:26:52.790Z,1.33
2023-01-22T04:29:23.829Z,1.31
2023-01-22T04:31:56.214Z,1.42
2023-01-22T04:34:46.981Z,1.36
2023-01-22T04:37:45.851Z,1.35
2023-01-22T04:40:15.597Z,1.37
2023-01-22T04:42:46.310Z,1.31
2023-01-22T04:45:16.972Z,1.32
2023-01-22T04:47:54.908Z,-0.42
2023-01-22T04:50:29.415Z,-0.22
2023-01-22T04:53:04.100Z,1.33
2023-01-22T04:55:35.154Z,1.31
2023-01-22T04:58:11.755Z,1.29
2023-01-22T05:00:49.764Z,1.37
2023-01-22T05:03:19.399Z,1.32
2023-01-22T05:05:50.247Z,1.39
2023-01-22T05:08:22.409Z,1.33
2023-01-22T05:10:52.842Z,1.31
2023-01-22T05:13:29.475Z,1.28
2023-01-22T05:16:03.966Z,1.28
2023-01-22T05:18:46.821Z,1.32
2023-01-22T05:21:16.476Z,1.24
2023-01-22T05:23:45.394Z,1.30
2023-01-22T05:26:19.076Z,1.28
2023-01-22T05:29:06.398Z,1.31
2023-01-22T05:32:00.599Z,1.34
2023-01-22T05:34:35.823Z,1.29
2023-01-22T05:37:07.567Z,1.30
2023-01-22T05:39:37.534Z,1.37
2023-01-22T05:42:15.781Z,0.99
2023-01-22T05:44:54.888Z,1.37
2023-01-22T05:47:34.117Z,1.41
2023-01-22T05:50:46.353Z,1.39
2023-01-22T05:53:17.976Z,1.40
2023-01-22T05:55:55.635Z,1.35
2023-01-22T05:58:26.998Z,1.37
2023-01-22T06:00:56.256Z,1.35
2023-01-22T06:03:35.159Z,1.35
2023-01-22T06:06:14.718Z,1.30
2023-01-22T06:08:51.351Z,1.40
2023-01-22T06:11:35.631Z,-0.10
2023-01-22T06:14:16.287Z,1.38
2023-01-22T06:17:00.637Z,1.41
2023-01-22T06:19:59.574Z,0.88
2023-01-22T06:22:29.659Z,1.35
2023-01-22T06:25:11.624Z,1.33
2023-01-22T06:28:10.136Z,1.29
2023-01-22T06:30:43.329Z,1.34
2023-01-22T06:33:18.178Z,1.36
2023-01-22T06:35:55.509Z,1.37
2023-01-22T06:38:27.166Z,1.37
2023-01-22T06:41:01.688Z,1.40
2023-01-22T06:43:40.856Z,1.34
2023-01-22T06:49:12.247Z,1.34
2023-01-22T06:52:07.307Z,1.35
2023-01-22T06:54:40.766Z,1.32
2023-01-22T06:57:10.013Z,1.29
2023-01-22T06:59:40.890Z,1.35
2023-01-22T07:02:12.058Z,1.43
2023-01-22T07:04:41.210Z,1.42
2023-01-22T07:07:12.236Z,1.47
2023-01-22T07:09:47.449Z,1.45
2023-01-22T07:12:27.113Z,1.45
2023-01-22T07:14:58.020Z,1.47
2023-01-22T07:17:30.309Z,1.56
2023-01-22T07:20:02.533Z,1.45
2023-01-22T07:22:33.800Z,1.43
2023-01-22T07:25:03.445Z,1.47
2023-01-22T07:27:35.204Z,1.51
2023-01-22T07:30:04.237Z,1.57
2023-01-22T07:32:35.328Z,1.41
2023-01-22T07:35:11.814Z,1.68
2023-01-22T07:37:44.357Z,1.78
2023-01-22T07:40:15.018Z,1.66
2023-01-22T07:42:44.061Z,1.67
2023-01-22T07:45:15.090Z,1.70
2023-01-22T07:47:51.276Z,0.23
2023-01-22T07:50:22.125Z,1.59
2023-01-22T07:52:54.396Z,1.69
2023-01-22T07:55:23.992Z,1.60
2023-01-22T07:58:00.152Z,1.44
2023-01-22T08:00:29.166Z,1.59
2023-01-22T08:02:57.960Z,1.91
2023-01-22T08:05:26.825Z,1.72
2023-01-22T08:07:57.194Z,1.60
2023-01-22T08:10:26.397Z,1.64
2023-01-22T08:12:55.472Z,1.61
2023-01-22T08:15:24.989Z,1.64
2023-01-22T08:17:54.674Z,1.70
2023-01-22T08:20:24.052Z,1.69
2023-01-22T08:22:58.004Z,1.77
2023-01-22T08:25:29.343Z,1.87
2023-01-22T08:27:58.889Z,1.87
2023-01-22T08:30:27.442Z,1.26
2023-01-22T08:32:56.834Z,1.82
2023-01-22T08:35:26.090Z,1.81
2023-01-22T08:38:19.811Z,1.71
2023-01-22T08:41:14.390Z,1.78
2023-01-22T08:43:43.936Z,1.71
2023-01-22T08:46:13.647Z,1.71
2023-01-22T08:48:46.232Z,1.64
2023-01-22T08:51:15.701Z,1.63
2023-01-22T08:53:45.032Z,1.65
2023-01-22T08:56:15.192Z,1.22
2023-01-22T08:58:44.754Z,1.54
2023-01-22T09:01:17.846Z,1.12
2023-01-22T09:03:49.497Z,1.78
2023-01-22T09:06:19.137Z,1.74
2023-01-22T09:08:48.063Z,1.86
2023-01-22T09:11:24.857Z,1.92
2023-01-22T09:13:58.576Z,2.01
2023-01-22T09:16:55.057Z,2.01
2023-01-22T09:19:25.195Z,1.97
2023-01-22T09:21:57.270Z,2.13
2023-01-22T09:24:29.693Z,2.19
2023-01-22T09:27:16.483Z,2.23
2023-01-22T09:29:48.229Z,2.47
2023-01-22T09:32:27.234Z,2.50
2023-01-22T09:35:00.582Z,2.43
2023-01-22T09:37:29.616Z,2.55
2023-01-22T09:40:00.380Z,2.70
2023-01-22T09:42:49.034Z,0.38
2023-01-22T09:45:31.051Z,2.37
2023-01-22T09:48:11.000Z,2.44
2023-01-22T09:50:56.769Z,2.12
2023-01-22T09:53:35.824Z,2.21
2023-01-22T09:56:22.169Z,1.26
2023-01-22T09:58:58.679Z,1.57
2023-01-22T10:01:34.004Z,2.47
2023-01-22T10:04:44.748Z,1.38
2023-01-22T10:07:44.536Z,1.70
2023-01-22T10:10:22.271Z,1.62
2023-01-22T10:12:56.741Z,0.88
2023-01-22T10:15:27.312Z,2.88
2023-01-22T10:17:59.075Z,1.01
2023-01-22T10:20:27.997Z,2.69
2023-01-22T10:23:04.002Z,2.81
2023-01-22T10:25:34.328Z,2.81
2023-01-22T10:28:04.285Z,3.12
2023-01-22T10:30:35.883Z,2.75
2023-01-22T10:33:17.200Z,2.20
2023-01-22T10:35:50.383Z,2.97
2023-01-22T10:38:28.544Z,2.64
2023-01-22T10:41:01.201Z,2.10
2023-01-22T10:43:38.938Z,0.84
2023-01-22T10:46:21.921Z,2.79
2023-01-22T10:49:21.670Z,2.58
2023-01-22T10:51:57.974Z,1.19
2023-01-22T10:54:33.161Z,3.08
2023-01-22T10:57:19.993Z,2.88
2023-01-22T10:59:54.782Z,2.96
2023-01-22T11:02:27.153Z,3.04
2023-01-22T11:04:56.530Z,3.29
2023-01-22T11:07:32.886Z,2.93
2023-01-22T11:10:17.428Z,1.16
2023-01-22T11:12:51.172Z,2.68
2023-01-22T11:15:29.619Z,2.96
2023-01-22T11:18:03.248Z,1.71
2023-01-22T11:20:45.457Z,3.37
2023-01-22T11:23:28.277Z,3.09
2023-01-22T11:26:12.818Z,3.18
2023-01-22T11:28:54.359Z,3.01
2023-01-22T11:31:43.302Z,2.95
2023-01-22T11:34:55.074Z,3.25
2023-01-22T11:37:42.474Z,2.77
2023-01-22T11:40:27.459Z,3.23
2023-01-22T11:43:23.451Z,3.44
2023-01-22T11:46:22.379Z,3.67
2023-01-22T11:49:09.293Z,3.48
2023-01-22T11:51:54.811Z,3.21
2023-01-22T11:55:05.760Z,3.13
2023-01-22T11:57:43.538Z,2.94
2023-01-22T12:00:44.331Z,2.94
2023-01-22T12:04:05.479Z,3.01
2023-01-22T12:07:05.599Z,2.94
2023-01-22T12:09:48.200Z,2.85
2023-01-22T12:12:39.147Z,2.69
2023-01-22T12:15:41.090Z,2.68
2023-01-22T12:19:20.086Z,2.56
2023-01-22T12:22:04.584Z,1.95
2023-01-22T12:24:41.331Z,2.12
2023-01-22T12:27:26.679Z,2.35
2023-01-22T12:30:03.540Z,2.32
2023-01-22T12:32:37.028Z,2.48
2023-01-22T12:35:16.996Z,2.47
2023-01-22T12:37:54.966Z,2.31
2023-01-22T12:41:04.847Z,2.32
2023-01-22T12:43:50.276Z,2.03
2023-01-22T12:46:32.159Z,2.20
2023-01-22T12:49:08.192Z,2.03
2023-01-22T12:51:41.039Z,2.36
2023-01-22T12:54:23.633Z,2.27
2023-01-22T12:56:56.669Z,2.47
2023-01-22T12:59:46.621Z,2.48
2023-01-22T13:02:38.744Z,2.45
2023-01-22T13:05:37.129Z,2.54
2023-01-22T13:08:20.478Z,2.32
2023-01-22T13:10:57.910Z,2.18
2023-01-22T13:13:33.745Z,2.43
2023-01-22T13:16:07.534Z,2.02
2023-01-22T13:18:43.427Z,2.25
2023-01-22T13:21:17.366Z,2.14
2023-01-22T13:23:49.101Z,2.08
2023-01-22T13:26:21.546Z,2.13
2023-01-22T13:28:53.781Z,2.03
2023-01-22T13:31:22.685Z,2.04
2023-01-22T13:33:59.739Z,1.68
2023-01-22T13:36:29.399Z,2.12
2023-01-22T13:39:00.973Z,2.09
2023-01-22T13:41:36.099Z,1.92
2023-01-22T13:44:06.471Z,2.25
2023-01-22T13:46:38.854Z,2.09
2023-01-22T13:49:13.222Z,1.78
2023-01-22T13:51:43.839Z,1.97
2023-01-22T13:54:23.503Z,1.97
2023-01-22T13:56:53.877Z,2.05
2023-01-22T13:59:26.486Z,2.02
2023-01-22T14:01:55.976Z,1.62
2023-01-22T14:04:34.541Z,1.60
2023-01-22T14:07:03.834Z,1.94
2023-01-22T14:09:36.818Z,1.83
2023-01-22T14:12:19.488Z,1.55
2023-01-22T14:14:49.183Z,1.22
2023-01-22T14:17:29.038Z,1.78
2023-01-22T14:19:58.429Z,1.90
2023-01-22T14:22:26.982Z,1.53
2023-01-22T14:24:55.836Z,1.73
2023-01-22T14:27:39.520Z,1.89
2023-01-22T14:30:11.101Z,1.84
2023-01-22T14:32:39.685Z,1.86
2023-01-22T14:35:09.207Z,1.88
2023-01-22T14:37:41.474Z,1.61
2023-01-22T14:40:12.761Z,1.84
2023-01-22T14:42:42.934Z,1.91
2023-01-22T14:45:13.014Z,1.97
2023-01-22T14:47:42.334Z,2.01
2023-01-22T14:50:16.246Z,1.87
2023-01-22T14:52:45.053Z,1.66
2023-01-22T14:55:13.905Z,1.94
2023-01-22T14:57:44.282Z,1.85
2023-01-22T15:00:16.503Z,1.79
2023-01-22T15:02:45.692Z,1.75
2023-01-22T15:05:14.632Z,1.30
2023-01-22T15:07:44.068Z,1.73
2023-01-22T15:10:13.815Z,1.67
2023-01-22T15:12:48.635Z,1.63
2023-01-22T15:15:18.925Z,1.57
2023-01-22T15:17:47.827Z,1.57
2023-01-22T15:20:17.702Z,1.54
2023-01-22T15:22:47.089Z,1.57
2023-01-22T15:25:15.747Z,1.60
2023-01-22T15:27:48.199Z,1.27
2023-01-22T15:30:17.587Z,1.59
2023-01-22T15:32:46.265Z,1.60
2023-01-22T15:35:14.895Z,1.13
2023-01-22T15:37:43.981Z,1.53
2023-01-22T15:40:15.005Z,1.10
2023-01-22T15:42:45.751Z,1.52
2023-01-22T15:45:14.928Z,1.54
2023-01-22T15:47:43.816Z,0.70
2023-01-22T15:50:20.196Z,1.59
2023-01-22T15:52:49.366Z,1.60
2023-01-22T15:55:19.305Z,1.58
2023-01-22T15:57:49.747Z,1.55
2023-01-22T16:00:19.698Z,1.45
2023-01-22T16:02:48.794Z,1.55
2023-01-22T16:05:19.626Z,1.63
2023-01-22T16:07:52.136Z,1.47
2023-01-22T16:10:22.603Z,1.63
2023-01-22T16:12:57.188Z,1.57
2023-01-22T16:15:27.278Z,1.25
2023-01-22T16:17:58.582Z,0.88
2023-01-22T16:20:29.164Z,1.55
2023-01-22T16:22:58.345Z,1.60
2023-01-22T16:25:27.239Z,1.66
2023-01-22T16:27:57.441Z,1.59
2023-01-22T16:30:26.503Z,1.65
2023-01-22T16:32:55.252Z,1.70
2023-01-22T16:35:24.419Z,1.73
2023-01-22T16:37:53.649Z,1.73
2023-01-22T16:40:22.281Z,1.21
2023-01-22T16:43:02.830Z,1.58
2023-01-22T16:45:31.310Z,1.22
2023-01-22T16:48:00.131Z,1.69
2023-01-22T16:50:29.027Z,1.65
2023-01-22T16:52:57.475Z,1.65
2023-01-22T16:55:26.097Z,1.63
2023-01-22T16:57:54.981Z,1.60
2023-01-22T17:00:25.277Z,1.63
2023-01-22T17:02:55.488Z,1.50
2023-01-22T17:05:24.232Z,1.55
2023-01-22T17:07:54.811Z,1.57
2023-01-22T17:10:23.426Z,0.75
2023-01-22T17:12:52.313Z,1.63
2023-01-22T17:15:25.635Z,1.60
2023-01-22T17:17:54.647Z,1.63
2023-01-22T17:20:23.424Z,1.64
2023-01-22T17:22:53.792Z,1.52
2023-01-22T17:25:22.592Z,1.58
2023-01-22T17:27:51.485Z,1.57
2023-01-22T17:30:20.756Z,1.58
2023-01-22T17:32:50.910Z,1.06
2023-01-22T17:35:20.176Z,1.70
2023-01-22T17:37:49.498Z,1.71
2023-01-22T17:40:19.124Z,1.68
2023-01-22T17:42:48.712Z,1.73
2023-01-22T17:45:17.905Z,1.70
2023-01-22T17:47:47.439Z,1.74
2023-01-22T17:50:18.224Z,1.68
2023-01-22T17:52:55.885Z,1.65
2023-01-22T17:55:25.861Z,1.68
2023-01-22T17:57:55.838Z,1.74
2023-01-22T18:00:24.902Z,1.66
2023-01-22T18:02:53.749Z,1.61
2023-01-22T18:05:25.602Z,1.65
2023-01-22T18:07:54.718Z,1.71
2023-01-22T18:10:23.729Z,1.63
2023-01-22T18:12:52.320Z,1.62
2023-01-22T18:15:21.665Z,1.68
2023-01-22T18:17:56.615Z,1.69
2023-01-22T18:20:27.583Z,0.33
2023-01-22T18:22:56.041Z,1.70
2023-01-22T18:25:24.747Z,1.66
2023-01-22T18:27:53.444Z,0.89
2023-01-22T18:30:22.146Z,1.35
2023-01-22T18:32:50.978Z,1.66
2023-01-22T18:35:20.812Z,1.00
2023-01-22T18:37:53.863Z,1.59
2023-01-22T18:40:22.678Z,1.62
2023-01-22T18:42:51.935Z,1.68
2023-01-22T18:45:20.917Z,1.66
2023-01-22T18:47:52.534Z,1.69
2023-01-22T18:50:21.657Z,1.67
2023-01-22T18:52:51.634Z,1.63
2023-01-22T18:55:22.073Z,1.59
2023-01-22T18:58:21.640Z,1.63
2023-01-22T19:00:50.442Z,1.67
2023-01-22T19:03:19.975Z,1.62
2023-01-22T19:05:51.006Z,1.48
2023-01-22T19:08:22.947Z,1.51
2023-01-22T19:10:52.020Z,1.55
2023-01-22T19:13:20.976Z,1.37
2023-01-22T19:15:50.483Z,1.56
2023-01-22T19:18:19.433Z,1.60
2023-01-22T19:20:47.898Z,1.64
2023-01-22T19:23:16.670Z,1.59
2023-01-22T19:25:46.621Z,1.65
2023-01-22T19:28:15.080Z,1.59
2023-01-22T19:30:43.988Z,1.68
2023-01-22T19:33:12.782Z,1.70
2023-01-22T19:35:45.790Z,1.49
2023-01-22T19:38:14.561Z,1.72
2023-01-22T19:40:47.847Z,1.08
2023-01-22T19:43:16.646Z,1.61
2023-01-22T19:45:45.100Z,1.73
2023-01-22T19:48:17.351Z,1.69
2023-01-22T19:50:46.199Z,1.69
2023-01-22T19:53:15.100Z,1.59
2023-01-22T19:55:45.384Z,1.62
2023-01-22T19:58:13.887Z,1.58
2023-01-22T20:00:42.603Z,1.65
2023-01-22T20:03:11.096Z,1.09
2023-01-22T20:05:41.329Z,1.33
2023-01-22T20:08:11.048Z,1.05
2023-01-22T20:10:39.679Z,1.59
2023-01-22T20:13:12.174Z,1.41
2023-01-22T20:15:42.403Z,1.64
2023-01-22T20:18:11.849Z,0.92
2023-01-22T20:20:40.272Z,1.41
2023-01-22T20:23:08.775Z,1.60
2023-01-22T20:25:39.983Z,1.58
2023-01-22T20:28:10.806Z,1.09
2023-01-22T20:30:39.622Z,1.55
2023-01-22T20:33:11.092Z,1.57
2023-01-22T20:35:42.766Z,1.66
2023-01-22T20:38:11.468Z,1.66
2023-01-22T20:40:46.065Z,1.68
2023-01-22T20:43:18.742Z,1.57
2023-01-22T20:45:58.338Z,1.61
2023-01-22T20:48:26.746Z,1.62
2023-01-22T20:50:55.180Z,1.38
2023-01-22T20:53:23.999Z,1.69
2023-01-22T20:56:00.786Z,1.65
2023-01-22T20:58:31.971Z,1.34
2023-01-22T21:01:05.259Z,1.43
2023-01-22T21:03:34.127Z,1.68
2023-01-22T21:06:07.658Z,1.47
2023-01-22T21:08:36.611Z,1.67
2023-01-22T21:11:09.376Z,1.66
2023-01-22T21:13:40.431Z,1.62
2023-01-22T21:16:10.960Z,1.68
2023-01-22T21:18:41.549Z,1.66
2023-01-22T21:21:11.233Z,1.73
2023-01-22T21:23:40.678Z,1.74
2023-01-22T21:26:12.369Z,1.43
2023-01-22T21:28:42.649Z,1.73
2023-01-22T21:31:15.005Z,1.71
2023-01-22T21:33:44.511Z,1.79
2023-01-22T21:36:18.180Z,1.45
2023-01-22T21:38:48.038Z,1.70
2023-01-22T21:41:19.931Z,1.67
2023-01-22T21:44:07.143Z,1.74
2023-01-22T21:46:38.467Z,1.69
2023-01-22T21:49:17.291Z,1.64
2023-01-22T21:51:49.235Z,1.77
2023-01-22T21:54:21.487Z,1.74
2023-01-22T21:56:50.625Z,1.80
2023-01-22T21:59:21.029Z,1.54
2023-01-22T22:01:53.357Z,1.76
2023-01-22T22:04:24.311Z,1.52
2023-01-22T22:06:54.597Z,1.73
2023-01-22T22:09:26.286Z,1.70
2023-01-22T22:11:58.635Z,1.60
2023-01-22T22:14:29.006Z,1.55
2023-01-22T22:16:58.315Z,1.72
2023-01-22T22:19:28.741Z,1.71
2023-01-22T22:21:57.208Z,1.75
2023-01-22T22:24:25.638Z,1.74
2023-01-22T22:26:54.193Z,1.55
2023-01-22T22:29:22.561Z,1.68
2023-01-22T22:31:52.453Z,1.67
2023-01-22T22:34:21.011Z,1.70
2023-01-22T22:36:49.430Z,1.70
2023-01-22T22:39:18.503Z,1.79
2023-01-22T22:41:46.917Z,1.85
2023-01-22T22:44:16.947Z,1.79
2023-01-22T22:46:45.420Z,1.70
2023-01-22T22:49:15.540Z,1.74
2023-01-22T22:51:45.395Z,1.61
2023-01-22T22:54:17.161Z,1.81
2023-01-22T22:56:46.360Z,1.72
2023-01-22T22:59:18.562Z,1.67
2023-01-22T23:01:47.295Z,1.78
2023-01-22T23:04:17.392Z,1.61
2023-01-22T23:06:47.188Z,1.58
2023-01-22T23:09:20.084Z,1.69
2023-01-22T23:11:51.792Z,1.47
2023-01-22T23:14:20.667Z,1.48
2023-01-22T23:16:50.071Z,1.42
2023-01-22T23:19:23.716Z,1.65
2023-01-22T23:21:54.522Z,1.42
2023-01-22T23:24:23.728Z,1.67
2023-01-22T23:26:52.791Z,1.72
2023-01-22T23:29:24.120Z,1.60
2023-01-22T23:31:52.795Z,1.71
2023-01-22T23:34:24.052Z,1.77
2023-01-22T23:36:52.770Z,1.69
2023-01-22T23:39:22.850Z,1.64
2023-01-22T23:41:51.601Z,1.71
2023-01-22T23:44:20.140Z,1.73
2023-01-22T23:46:49.232Z,1.76
2023-01-22T23:49:17.678Z,1.85
2023-01-22T23:51:47.528Z,1.72
2023-01-22T23:54:16.031Z,1.79
2023-01-22T23:56:44.487Z,1.48
2023-01-22T23:59:13.343Z,1.67
